sensor_id;sensor_type;location;lat;lon;timestamp;P1;durP1;ratioP1;P2;durP2;ratioP2
41755;SDS011;27435;48.480;9.258;2023-03-31T00:01:32;7.80;;;1.73;;
41755;SDS011;27435;48.480;9.258;2023-03-31T00:03:59;6.53;;;2.13;;
41755;SDS011;27435;48.480;9.258;2023-03-31T00:06:33;9.60;;;2.30;;
41755;SDS011;27435;48.480;9.258;2023-03-31T00:09:06;7.27;;;1.70;;
41755;SDS011;27435;48.480;9.258;2023-03-31T00:11:32;8.83;;;1.77;;
41755;SDS011;27435;48.480;9.258;2023-03-31T00:13:58;8.20;;;1.90;;
41755;SDS011;27435;48.480;9.258;2023-03-31T00:16:23;5.53;;;2.00;;
41755;SDS011;27435;48.480;9.258;2023-03-31T00:18:49;5.23;;;2.17;;
41755;SDS011;27435;48.480;9.258;2023-03-31T00:21:16;6.47;;;1.80;;
41755;SDS011;27435;48.480;9.258;2023-03-31T00:23:52;7.33;;;1.60;;
41755;SDS011;27435;48.480;9.258;2023-03-31T00:26:23;7.00;;;1.73;;
41755;SDS011;27435;48.480;9.258;2023-03-31T00:28:50;5.10;;;1.23;;
41755;SDS011;27435;48.480;9.258;2023-03-31T00:31:16;9.83;;;2.20;;
41755;SDS011;27435;48.480;9.258;2023-03-31T00:33:41;6.80;;;1.60;;
41755;SDS011;27435;48.480;9.258;2023-03-31T00:36:07;6.60;;;1.50;;
41755;SDS011;27435;48.480;9.258;2023-03-31T00:38:33;7.93;;;1.50;;
41755;SDS011;27435;48.480;9.258;2023-03-31T00:40:58;13.70;;;2.43;;
41755;SDS011;27435;48.480;9.258;2023-03-31T00:43:31;11.47;;;2.27;;
41755;SDS011;27435;48.480;9.258;2023-03-31T00:48:41;6.43;;;2.10;;
41755;SDS011;27435;48.480;9.258;2023-03-31T00:51:12;10.27;;;1.73;;
41755;SDS011;27435;48.480;9.258;2023-03-31T00:53:38;5.23;;;1.60;;
41755;SDS011;27435;48.480;9.258;2023-03-31T00:56:06;13.97;;;2.47;;
41755;SDS011;27435;48.480;9.258;2023-03-31T00:58:36;6.50;;;1.47;;
41755;SDS011;27435;48.480;9.258;2023-03-31T01:01:08;9.90;;;1.93;;
41755;SDS011;27435;48.480;9.258;2023-03-31T01:03:38;8.80;;;1.60;;
41755;SDS011;27435;48.480;9.258;2023-03-31T01:06:06;6.43;;;1.83;;
41755;SDS011;27435;48.480;9.258;2023-03-31T01:08:34;6.47;;;1.60;;
41755;SDS011;27435;48.480;9.258;2023-03-31T01:11:03;6.07;;;1.47;;
41755;SDS011;27435;48.480;9.258;2023-03-31T01:13:36;9.40;;;2.53;;
41755;SDS011;27435;48.480;9.258;2023-03-31T01:16:03;7.93;;;2.57;;
41755;SDS011;27435;48.480;9.258;2023-03-31T01:18:29;7.10;;;1.70;;
41755;SDS011;27435;48.480;9.258;2023-03-31T01:26:52;7.17;;;1.93;;
41755;SDS011;27435;48.480;9.258;2023-03-31T01:40:56;7.60;;;1.53;;
41755;SDS011;27435;48.480;9.258;2023-03-31T01:43:32;7.70;;;1.63;;
41755;SDS011;27435;48.480;9.258;2023-03-31T01:46:10;9.13;;;1.73;;
41755;SDS011;27435;48.480;9.258;2023-03-31T01:48:43;5.80;;;1.50;;
41755;SDS011;27435;48.480;9.258;2023-03-31T01:59:10;7.07;;;2.30;;
41755;SDS011;27435;48.480;9.258;2023-03-31T02:01:52;6.30;;;2.00;;
41755;SDS011;27435;48.480;9.258;2023-03-31T02:04:22;5.97;;;2.13;;
41755;SDS011;27435;48.480;9.258;2023-03-31T02:06:55;8.47;;;2.27;;
41755;SDS011;27435;48.480;9.258;2023-03-31T02:09:37;4.47;;;1.93;;
41755;SDS011;27435;48.480;9.258;2023-03-31T02:12:08;7.00;;;2.10;;
41755;SDS011;27435;48.480;9.258;2023-03-31T02:14:37;7.23;;;2.20;;
41755;SDS011;27435;48.480;9.258;2023-03-31T02:17:07;11.27;;;3.27;;
41755;SDS011;27435;48.480;9.258;2023-03-31T02:19:42;8.30;;;1.92;;
41755;SDS011;27435;48.480;9.258;2023-03-31T02:22:11;8.50;;;2.60;;
41755;SDS011;27435;48.480;9.258;2023-03-31T02:24:38;5.77;;;2.00;;
41755;SDS011;27435;48.480;9.258;2023-03-31T02:29:34;14.07;;;2.70;;
41755;SDS011;27435;48.480;9.258;2023-03-31T02:32:07;9.20;;;2.47;;
41755;SDS011;27435;48.480;9.258;2023-03-31T02:34:39;6.23;;;2.33;;
41755;SDS011;27435;48.480;9.258;2023-03-31T02:37:05;20.63;;;3.10;;
41755;SDS011;27435;48.480;9.258;2023-03-31T02:39:33;10.67;;;3.07;;
41755;SDS011;27435;48.480;9.258;2023-03-31T02:42:01;13.97;;;3.60;;
41755;SDS011;27435;48.480;9.258;2023-03-31T02:44:32;7.77;;;2.50;;
41755;SDS011;27435;48.480;9.258;2023-03-31T02:47:02;7.93;;;2.70;;
41755;SDS011;27435;48.480;9.258;2023-03-31T02:49:29;10.60;;;3.17;;
41755;SDS011;27435;48.480;9.258;2023-03-31T02:55:22;9.80;;;3.00;;
41755;SDS011;27435;48.480;9.258;2023-03-31T02:57:51;9.80;;;3.70;;
41755;SDS011;27435;48.480;9.258;2023-03-31T03:11:32;11.93;;;3.63;;
41755;SDS011;27435;48.480;9.258;2023-03-31T03:16:54;11.10;;;3.40;;
41755;SDS011;27435;48.480;9.258;2023-03-31T03:19:24;7.90;;;2.87;;
41755;SDS011;27435;48.480;9.258;2023-03-31T03:21:50;6.37;;;3.07;;
41755;SDS011;27435;48.480;9.258;2023-03-31T03:24:16;16.60;;;3.50;;
41755;SDS011;27435;48.480;9.258;2023-03-31T03:26:43;11.77;;;3.23;;
41755;SDS011;27435;48.480;9.258;2023-03-31T03:29:10;6.43;;;2.80;;
41755;SDS011;27435;48.480;9.258;2023-03-31T03:31:38;7.50;;;2.67;;
41755;SDS011;27435;48.480;9.258;2023-03-31T03:34:04;9.60;;;3.37;;
41755;SDS011;27435;48.480;9.258;2023-03-31T03:36:31;5.40;;;2.50;;
41755;SDS011;27435;48.480;9.258;2023-03-31T03:38:57;5.83;;;2.30;;
41755;SDS011;27435;48.480;9.258;2023-03-31T03:41:22;10.27;;;3.03;;
41755;SDS011;27435;48.480;9.258;2023-03-31T03:43:48;8.70;;;2.87;;
41755;SDS011;27435;48.480;9.258;2023-03-31T03:46:14;11.83;;;3.40;;
41755;SDS011;27435;48.480;9.258;2023-03-31T03:48:40;8.17;;;3.03;;
41755;SDS011;27435;48.480;9.258;2023-03-31T03:51:05;9.43;;;2.97;;
41755;SDS011;27435;48.480;9.258;2023-03-31T03:53:31;7.60;;;2.73;;
41755;SDS011;27435;48.480;9.258;2023-03-31T03:55:56;11.20;;;3.07;;
41755;SDS011;27435;48.480;9.258;2023-03-31T03:58:23;10.23;;;3.47;;
41755;SDS011;27435;48.480;9.258;2023-03-31T04:00:49;10.60;;;3.63;;
41755;SDS011;27435;48.480;9.258;2023-03-31T04:03:15;12.53;;;2.83;;
41755;SDS011;27435;48.480;9.258;2023-03-31T04:05:40;14.03;;;3.20;;
41755;SDS011;27435;48.480;9.258;2023-03-31T04:08:06;7.93;;;2.73;;
41755;SDS011;27435;48.480;9.258;2023-03-31T04:10:33;10.23;;;3.00;;
41755;SDS011;27435;48.480;9.258;2023-03-31T04:12:59;11.07;;;3.80;;
41755;SDS011;27435;48.480;9.258;2023-03-31T04:15:25;9.03;;;3.30;;
41755;SDS011;27435;48.480;9.258;2023-03-31T04:17:51;6.40;;;2.87;;
41755;SDS011;27435;48.480;9.258;2023-03-31T04:20:18;11.37;;;3.33;;
41755;SDS011;27435;48.480;9.258;2023-03-31T04:22:45;8.97;;;3.77;;
41755;SDS011;27435;48.480;9.258;2023-03-31T04:25:15;5.87;;;2.83;;
41755;SDS011;27435;48.480;9.258;2023-03-31T04:27:45;10.57;;;3.73;;
41755;SDS011;27435;48.480;9.258;2023-03-31T04:30:15;9.10;;;3.53;;
41755;SDS011;27435;48.480;9.258;2023-03-31T04:32:49;7.87;;;2.90;;
41755;SDS011;27435;48.480;9.258;2023-03-31T04:35:17;5.67;;;3.00;;
41755;SDS011;27435;48.480;9.258;2023-03-31T04:37:45;8.53;;;3.13;;
41755;SDS011;27435;48.480;9.258;2023-03-31T04:40:14;7.40;;;2.80;;
41755;SDS011;27435;48.480;9.258;2023-03-31T04:42:41;15.03;;;2.97;;
41755;SDS011;27435;48.480;9.258;2023-03-31T04:45:08;9.00;;;2.80;;
41755;SDS011;27435;48.480;9.258;2023-03-31T04:47:34;14.03;;;4.20;;
41755;SDS011;27435;48.480;9.258;2023-03-31T04:50:01;8.07;;;3.30;;
41755;SDS011;27435;48.480;9.258;2023-03-31T04:52:26;9.33;;;3.27;;
41755;SDS011;27435;48.480;9.258;2023-03-31T04:54:52;11.73;;;2.93;;
41755;SDS011;27435;48.480;9.258;2023-03-31T04:57:18;11.40;;;3.00;;
41755;SDS011;27435;48.480;9.258;2023-03-31T04:59:43;7.83;;;2.80;;
41755;SDS011;27435;48.480;9.258;2023-03-31T05:02:10;9.37;;;3.10;;
41755;SDS011;27435;48.480;9.258;2023-03-31T05:04:35;10.27;;;3.80;;
41755;SDS011;27435;48.480;9.258;2023-03-31T05:07:01;8.27;;;2.77;;
41755;SDS011;27435;48.480;9.258;2023-03-31T05:09:27;9.27;;;3.20;;
41755;SDS011;27435;48.480;9.258;2023-03-31T05:11:53;8.17;;;2.70;;
41755;SDS011;27435;48.480;9.258;2023-03-31T05:14:19;18.60;;;3.73;;
41755;SDS011;27435;48.480;9.258;2023-03-31T05:16:45;9.27;;;3.33;;
41755;SDS011;27435;48.480;9.258;2023-03-31T05:19:10;12.60;;;3.60;;
41755;SDS011;27435;48.480;9.258;2023-03-31T05:21:36;8.83;;;3.63;;
41755;SDS011;27435;48.480;9.258;2023-03-31T05:24:02;11.70;;;3.63;;
41755;SDS011;27435;48.480;9.258;2023-03-31T05:26:28;11.67;;;4.33;;
41755;SDS011;27435;48.480;9.258;2023-03-31T05:28:54;7.07;;;4.07;;
41755;SDS011;27435;48.480;9.258;2023-03-31T05:31:20;10.37;;;4.43;;
41755;SDS011;27435;48.480;9.258;2023-03-31T05:33:46;16.90;;;4.30;;
41755;SDS011;27435;48.480;9.258;2023-03-31T05:36:13;10.00;;;4.00;;
41755;SDS011;27435;48.480;9.258;2023-03-31T05:38:39;11.33;;;4.73;;
41755;SDS011;27435;48.480;9.258;2023-03-31T05:41:05;14.67;;;5.20;;
41755;SDS011;27435;48.480;9.258;2023-03-31T05:43:33;11.17;;;4.70;;
41755;SDS011;27435;48.480;9.258;2023-03-31T05:45:59;11.53;;;4.87;;
41755;SDS011;27435;48.480;9.258;2023-03-31T05:48:25;8.37;;;4.90;;
41755;SDS011;27435;48.480;9.258;2023-03-31T05:50:50;10.80;;;4.43;;
41755;SDS011;27435;48.480;9.258;2023-03-31T05:53:20;11.80;;;4.47;;
41755;SDS011;27435;48.480;9.258;2023-03-31T05:55:45;17.27;;;5.33;;
41755;SDS011;27435;48.480;9.258;2023-03-31T05:58:11;10.03;;;4.37;;
41755;SDS011;27435;48.480;9.258;2023-03-31T06:00:36;21.07;;;4.63;;
41755;SDS011;27435;48.480;9.258;2023-03-31T06:03:02;10.93;;;4.63;;
41755;SDS011;27435;48.480;9.258;2023-03-31T06:05:28;9.53;;;4.63;;
41755;SDS011;27435;48.480;9.258;2023-03-31T06:07:55;12.47;;;4.83;;
41755;SDS011;27435;48.480;9.258;2023-03-31T06:10:21;14.90;;;4.13;;
41755;SDS011;27435;48.480;9.258;2023-03-31T06:12:46;8.77;;;4.40;;
41755;SDS011;27435;48.480;9.258;2023-03-31T06:15:12;11.47;;;4.97;;
41755;SDS011;27435;48.480;9.258;2023-03-31T06:17:37;10.73;;;4.40;;
41755;SDS011;27435;48.480;9.258;2023-03-31T06:20:03;9.57;;;4.17;;
41755;SDS011;27435;48.480;9.258;2023-03-31T06:22:30;9.93;;;4.57;;
41755;SDS011;27435;48.480;9.258;2023-03-31T06:24:56;13.30;;;4.10;;
41755;SDS011;27435;48.480;9.258;2023-03-31T06:27:22;12.27;;;3.93;;
41755;SDS011;27435;48.480;9.258;2023-03-31T06:29:48;8.87;;;4.33;;
41755;SDS011;27435;48.480;9.258;2023-03-31T06:32:14;9.80;;;4.17;;
41755;SDS011;27435;48.480;9.258;2023-03-31T06:34:40;10.33;;;3.77;;
41755;SDS011;27435;48.480;9.258;2023-03-31T06:37:05;9.97;;;4.57;;
41755;SDS011;27435;48.480;9.258;2023-03-31T06:39:31;11.30;;;4.50;;
41755;SDS011;27435;48.480;9.258;2023-03-31T06:41:57;11.77;;;5.47;;
41755;SDS011;27435;48.480;9.258;2023-03-31T06:44:22;8.63;;;5.03;;
41755;SDS011;27435;48.480;9.258;2023-03-31T06:46:48;13.47;;;4.63;;
41755;SDS011;27435;48.480;9.258;2023-03-31T06:49:14;8.80;;;3.90;;
41755;SDS011;27435;48.480;9.258;2023-03-31T06:51:40;8.77;;;4.30;;
41755;SDS011;27435;48.480;9.258;2023-03-31T06:54:05;12.30;;;4.50;;
41755;SDS011;27435;48.480;9.258;2023-03-31T06:56:31;11.87;;;4.20;;
41755;SDS011;27435;48.480;9.258;2023-03-31T06:58:57;10.43;;;4.33;;
41755;SDS011;27435;48.480;9.258;2023-03-31T07:01:22;11.20;;;4.80;;
41755;SDS011;27435;48.480;9.258;2023-03-31T07:03:48;13.50;;;5.60;;
41755;SDS011;27435;48.480;9.258;2023-03-31T07:06:14;5.50;;;2.20;;
41755;SDS011;27435;48.480;9.258;2023-03-31T07:08:40;7.23;;;2.83;;
41755;SDS011;27435;48.480;9.258;2023-03-31T07:11:06;5.73;;;2.70;;
41755;SDS011;27435;48.480;9.258;2023-03-31T07:13:31;5.70;;;2.57;;
41755;SDS011;27435;48.480;9.258;2023-03-31T07:15:57;3.57;;;1.70;;
41755;SDS011;27435;48.480;9.258;2023-03-31T07:18:23;4.63;;;1.43;;
41755;SDS011;27435;48.480;9.258;2023-03-31T07:20:50;4.17;;;1.70;;
41755;SDS011;27435;48.480;9.258;2023-03-31T07:23:16;3.03;;;1.73;;
41755;SDS011;27435;48.480;9.258;2023-03-31T07:25:42;5.13;;;1.83;;
41755;SDS011;27435;48.480;9.258;2023-03-31T07:28:09;6.27;;;2.00;;
41755;SDS011;27435;48.480;9.258;2023-03-31T07:30:35;4.33;;;2.13;;
41755;SDS011;27435;48.480;9.258;2023-03-31T07:33:01;4.27;;;2.33;;
41755;SDS011;27435;48.480;9.258;2023-03-31T07:35:27;3.70;;;1.70;;
41755;SDS011;27435;48.480;9.258;2023-03-31T07:37:52;5.80;;;1.67;;
41755;SDS011;27435;48.480;9.258;2023-03-31T07:40:20;4.10;;;1.23;;
41755;SDS011;27435;48.480;9.258;2023-03-31T07:42:47;1.43;;;0.80;;
41755;SDS011;27435;48.480;9.258;2023-03-31T07:45:16;2.83;;;1.00;;
41755;SDS011;27435;48.480;9.258;2023-03-31T07:47:42;3.47;;;0.97;;
41755;SDS011;27435;48.480;9.258;2023-03-31T07:50:10;2.27;;;0.73;;
41755;SDS011;27435;48.480;9.258;2023-03-31T07:52:37;2.97;;;0.80;;
41755;SDS011;27435;48.480;9.258;2023-03-31T07:55:03;4.43;;;0.83;;
41755;SDS011;27435;48.480;9.258;2023-03-31T07:57:29;1.30;;;0.80;;
41755;SDS011;27435;48.480;9.258;2023-03-31T07:59:55;3.60;;;0.87;;
41755;SDS011;27435;48.480;9.258;2023-03-31T08:02:21;1.90;;;0.87;;
41755;SDS011;27435;48.480;9.258;2023-03-31T08:04:47;1.30;;;0.60;;
41755;SDS011;27435;48.480;9.258;2023-03-31T08:07:13;3.23;;;0.67;;
41755;SDS011;27435;48.480;9.258;2023-03-31T08:09:42;1.17;;;0.67;;
41755;SDS011;27435;48.480;9.258;2023-03-31T08:12:09;2.33;;;0.87;;
41755;SDS011;27435;48.480;9.258;2023-03-31T08:14:35;1.87;;;0.50;;
41755;SDS011;27435;48.480;9.258;2023-03-31T08:17:00;1.67;;;0.70;;
41755;SDS011;27435;48.480;9.258;2023-03-31T08:19:26;1.20;;;0.50;;
41755;SDS011;27435;48.480;9.258;2023-03-31T08:21:52;1.67;;;1.07;;
41755;SDS011;27435;48.480;9.258;2023-03-31T08:24:18;1.23;;;0.50;;
41755;SDS011;27435;48.480;9.258;2023-03-31T08:26:43;1.40;;;0.57;;
41755;SDS011;27435;48.480;9.258;2023-03-31T08:29:10;1.07;;;0.50;;
41755;SDS011;27435;48.480;9.258;2023-03-31T08:31:35;1.43;;;0.40;;
41755;SDS011;27435;48.480;9.258;2023-03-31T08:34:01;1.73;;;0.50;;
41755;SDS011;27435;48.480;9.258;2023-03-31T08:36:27;1.60;;;0.50;;
41755;SDS011;27435;48.480;9.258;2023-03-31T08:38:53;1.50;;;0.50;;
41755;SDS011;27435;48.480;9.258;2023-03-31T08:43:48;0.70;;;0.43;;
41755;SDS011;27435;48.480;9.258;2023-03-31T08:46:16;2.67;;;1.30;;
41755;SDS011;27435;48.480;9.258;2023-03-31T08:48:47;0.70;;;0.27;;
41755;SDS011;27435;48.480;9.258;2023-03-31T08:51:28;0.77;;;0.40;;
41755;SDS011;27435;48.480;9.258;2023-03-31T08:54:58;2.90;;;1.43;;
41755;SDS011;27435;48.480;9.258;2023-03-31T08:56:57;1.60;;;0.40;;
41755;SDS011;27435;48.480;9.258;2023-03-31T08:59:30;1.03;;;0.40;;
41755;SDS011;27435;48.480;9.258;2023-03-31T09:01:59;2.65;;;0.45;;
41755;SDS011;27435;48.480;9.258;2023-03-31T09:04:46;2.67;;;0.60;;
41755;SDS011;27435;48.480;9.258;2023-03-31T09:15:13;1.90;;;0.50;;
41755;SDS011;27435;48.480;9.258;2023-03-31T09:17:44;3.07;;;0.87;;
41755;SDS011;27435;48.480;9.258;2023-03-31T09:22:42;1.17;;;0.40;;
41755;SDS011;27435;48.480;9.258;2023-03-31T09:25:34;1.70;;;0.53;;
41755;SDS011;27435;48.480;9.258;2023-03-31T09:27:59;1.70;;;0.50;;
41755;SDS011;27435;48.480;9.258;2023-03-31T09:30:32;1.47;;;0.50;;
41755;SDS011;27435;48.480;9.258;2023-03-31T09:35:47;2.43;;;0.50;;
41755;SDS011;27435;48.480;9.258;2023-03-31T09:38:13;2.03;;;0.60;;
41755;SDS011;27435;48.480;9.258;2023-03-31T09:40:40;1.27;;;0.50;;
41755;SDS011;27435;48.480;9.258;2023-03-31T09:43:27;2.67;;;0.40;;
41755;SDS011;27435;48.480;9.258;2023-03-31T09:45:53;2.15;;;0.55;;
41755;SDS011;27435;48.480;9.258;2023-03-31T09:48:22;4.00;;;0.77;;
41755;SDS011;27435;48.480;9.258;2023-03-31T09:51:00;3.33;;;0.70;;
41755;SDS011;27435;48.480;9.258;2023-03-31T09:53:42;3.73;;;0.70;;
41755;SDS011;27435;48.480;9.258;2023-03-31T09:56:10;5.10;;;1.13;;
41755;SDS011;27435;48.480;9.258;2023-03-31T09:58:43;8.27;;;0.73;;
41755;SDS011;27435;48.480;9.258;2023-03-31T10:01:10;3.83;;;1.00;;
41755;SDS011;27435;48.480;9.258;2023-03-31T10:03:46;4.40;;;1.07;;
41755;SDS011;27435;48.480;9.258;2023-03-31T10:06:15;3.73;;;1.07;;
41755;SDS011;27435;48.480;9.258;2023-03-31T10:08:46;2.50;;;0.60;;
41755;SDS011;27435;48.480;9.258;2023-03-31T10:11:23;4.37;;;1.40;;
41755;SDS011;27435;48.480;9.258;2023-03-31T10:16:32;4.00;;;1.00;;
41755;SDS011;27435;48.480;9.258;2023-03-31T10:21:55;3.70;;;1.40;;
41755;SDS011;27435;48.480;9.258;2023-03-31T10:24:23;4.73;;;1.10;;
41755;SDS011;27435;48.480;9.258;2023-03-31T10:26:53;5.63;;;1.23;;
41755;SDS011;27435;48.480;9.258;2023-03-31T10:29:30;5.57;;;0.77;;
41755;SDS011;27435;48.480;9.258;2023-03-31T10:32:01;4.17;;;0.97;;
41755;SDS011;27435;48.480;9.258;2023-03-31T10:34:29;4.88;;;0.82;;
41755;SDS011;27435;48.480;9.258;2023-03-31T10:36:55;1.95;;;0.70;;
41755;SDS011;27435;48.480;9.258;2023-03-31T10:39:21;6.50;;;1.02;;
41755;SDS011;27435;48.480;9.258;2023-03-31T10:41:55;3.63;;;1.00;;
41755;SDS011;27435;48.480;9.258;2023-03-31T10:49:47;5.57;;;0.90;;
41755;SDS011;27435;48.480;9.258;2023-03-31T10:52:16;5.05;;;1.13;;
41755;SDS011;27435;48.480;9.258;2023-03-31T10:54:45;9.50;;;1.42;;
41755;SDS011;27435;48.480;9.258;2023-03-31T10:57:12;2.72;;;0.77;;
41755;SDS011;27435;48.480;9.258;2023-03-31T11:05:14;5.72;;;1.00;;
41755;SDS011;27435;48.480;9.258;2023-03-31T11:33:14;1.73;;;0.60;;
41755;SDS011;27435;48.480;9.258;2023-03-31T11:38:08;2.60;;;0.90;;
41755;SDS011;27435;48.480;9.258;2023-03-31T11:41:04;1.33;;;0.40;;
41755;SDS011;27435;48.480;9.258;2023-03-31T11:43:44;7.10;;;0.70;;
41755;SDS011;27435;48.480;9.258;2023-03-31T11:49:21;1.70;;;0.30;;
41755;SDS011;27435;48.480;9.258;2023-03-31T11:51:55;2.43;;;0.50;;
41755;SDS011;27435;48.480;9.258;2023-03-31T11:54:34;1.33;;;0.50;;
41755;SDS011;27435;48.480;9.258;2023-03-31T11:57:12;2.10;;;0.30;;
41755;SDS011;27435;48.480;9.258;2023-03-31T11:59:43;1.10;;;0.30;;
41755;SDS011;27435;48.480;9.258;2023-03-31T12:02:16;0.83;;;0.37;;
41755;SDS011;27435;48.480;9.258;2023-03-31T12:04:50;1.83;;;0.83;;
41755;SDS011;27435;48.480;9.258;2023-03-31T12:07:25;1.07;;;0.60;;
41755;SDS011;27435;48.480;9.258;2023-03-31T12:12:54;1.03;;;0.50;;
41755;SDS011;27435;48.480;9.258;2023-03-31T12:15:53;2.10;;;0.30;;
41755;SDS011;27435;48.480;9.258;2023-03-31T12:18:28;1.90;;;0.30;;
41755;SDS011;27435;48.480;9.258;2023-03-31T12:21:05;0.77;;;0.33;;
41755;SDS011;27435;48.480;9.258;2023-03-31T12:23:35;2.20;;;0.50;;
41755;SDS011;27435;48.480;9.258;2023-03-31T12:28:53;0.97;;;0.50;;
41755;SDS011;27435;48.480;9.258;2023-03-31T12:31:23;2.00;;;0.43;;
41755;SDS011;27435;48.480;9.258;2023-03-31T12:33:54;0.87;;;0.37;;
41755;SDS011;27435;48.480;9.258;2023-03-31T12:39:08;1.83;;;0.60;;
41755;SDS011;27435;48.480;9.258;2023-03-31T12:48:16;2.47;;;0.57;;
41755;SDS011;27435;48.480;9.258;2023-03-31T12:53:50;2.67;;;0.43;;
41755;SDS011;27435;48.480;9.258;2023-03-31T12:56:18;3.17;;;0.60;;
41755;SDS011;27435;48.480;9.258;2023-03-31T12:58:44;2.77;;;0.87;;
41755;SDS011;27435;48.480;9.258;2023-03-31T13:16:44;4.53;;;0.97;;
41755;SDS011;27435;48.480;9.258;2023-03-31T13:19:11;4.07;;;0.70;;
41755;SDS011;27435;48.480;9.258;2023-03-31T13:21:55;6.60;;;1.13;;
41755;SDS011;27435;48.480;9.258;2023-03-31T13:24:26;4.33;;;1.57;;
41755;SDS011;27435;48.480;9.258;2023-03-31T13:26:53;7.53;;;1.00;;
41755;SDS011;27435;48.480;9.258;2023-03-31T13:29:42;3.63;;;0.60;;
41755;SDS011;27435;48.480;9.258;2023-03-31T13:34:53;6.53;;;1.20;;
41755;SDS011;27435;48.480;9.258;2023-03-31T13:48:34;5.70;;;1.03;;
41755;SDS011;27435;48.480;9.258;2023-03-31T14:07:58;1.80;;;0.70;;
41755;SDS011;27435;48.480;9.258;2023-03-31T14:13:08;2.83;;;0.70;;
41755;SDS011;27435;48.480;9.258;2023-03-31T14:15:54;3.30;;;0.87;;
41755;SDS011;27435;48.480;9.258;2023-03-31T14:18:26;4.90;;;0.83;;
41755;SDS011;27435;48.480;9.258;2023-03-31T14:21:16;2.60;;;1.03;;
41755;SDS011;27435;48.480;9.258;2023-03-31T14:23:48;6.20;;;1.60;;
41755;SDS011;27435;48.480;9.258;2023-03-31T14:31:57;1.37;;;0.30;;
41755;SDS011;27435;48.480;9.258;2023-03-31T14:37:37;2.33;;;0.40;;
41755;SDS011;27435;48.480;9.258;2023-03-31T14:40:04;2.13;;;0.70;;
41755;SDS011;27435;48.480;9.258;2023-03-31T14:42:36;1.30;;;0.30;;
41755;SDS011;27435;48.480;9.258;2023-03-31T14:45:05;2.63;;;0.40;;
41755;SDS011;27435;48.480;9.258;2023-03-31T14:47:39;1.50;;;0.30;;
41755;SDS011;27435;48.480;9.258;2023-03-31T14:50:15;4.00;;;0.47;;
41755;SDS011;27435;48.480;9.258;2023-03-31T14:52:49;2.20;;;0.50;;
41755;SDS011;27435;48.480;9.258;2023-03-31T14:55:16;1.67;;;0.40;;
41755;SDS011;27435;48.480;9.258;2023-03-31T14:57:46;1.63;;;0.40;;
41755;SDS011;27435;48.480;9.258;2023-03-31T15:00:14;4.60;;;0.63;;
41755;SDS011;27435;48.480;9.258;2023-03-31T15:02:45;1.90;;;0.50;;
41755;SDS011;27435;48.480;9.258;2023-03-31T15:05:20;1.37;;;0.40;;
41755;SDS011;27435;48.480;9.258;2023-03-31T15:07:50;2.77;;;0.50;;
41755;SDS011;27435;48.480;9.258;2023-03-31T15:10:19;6.17;;;0.60;;
41755;SDS011;27435;48.480;9.258;2023-03-31T15:12:49;3.97;;;0.50;;
41755;SDS011;27435;48.480;9.258;2023-03-31T15:15:16;2.27;;;0.40;;
41755;SDS011;27435;48.480;9.258;2023-03-31T15:17:45;2.57;;;0.50;;
41755;SDS011;27435;48.480;9.258;2023-03-31T15:22:55;2.03;;;0.50;;
41755;SDS011;27435;48.480;9.258;2023-03-31T15:25:22;1.47;;;0.33;;
41755;SDS011;27435;48.480;9.258;2023-03-31T15:28:07;3.20;;;0.50;;
41755;SDS011;27435;48.480;9.258;2023-03-31T15:30:40;2.60;;;0.47;;
41755;SDS011;27435;48.480;9.258;2023-03-31T15:33:06;3.07;;;0.40;;
41755;SDS011;27435;48.480;9.258;2023-03-31T15:35:39;5.37;;;0.87;;
41755;SDS011;27435;48.480;9.258;2023-03-31T15:38:05;3.27;;;0.70;;
41755;SDS011;27435;48.480;9.258;2023-03-31T15:40:37;2.03;;;0.40;;
41755;SDS011;27435;48.480;9.258;2023-03-31T15:43:18;3.17;;;0.60;;
41755;SDS011;27435;48.480;9.258;2023-03-31T15:45:51;1.40;;;0.37;;
41755;SDS011;27435;48.480;9.258;2023-03-31T15:50:46;2.40;;;0.37;;
41755;SDS011;27435;48.480;9.258;2023-03-31T15:53:20;1.73;;;0.40;;
41755;SDS011;27435;48.480;9.258;2023-03-31T15:56:07;3.20;;;0.30;;
41755;SDS011;27435;48.480;9.258;2023-03-31T15:58:58;2.00;;;0.77;;
41755;SDS011;27435;48.480;9.258;2023-03-31T16:01:36;1.27;;;0.37;;
41755;SDS011;27435;48.480;9.258;2023-03-31T16:04:10;2.63;;;1.00;;
41755;SDS011;27435;48.480;9.258;2023-03-31T16:06:40;3.50;;;1.10;;
41755;SDS011;27435;48.480;9.258;2023-03-31T16:09:18;2.57;;;1.03;;
41755;SDS011;27435;48.480;9.258;2023-03-31T16:11:55;2.87;;;0.90;;
41755;SDS011;27435;48.480;9.258;2023-03-31T16:14:30;3.53;;;0.60;;
41755;SDS011;27435;48.480;9.258;2023-03-31T16:17:03;2.60;;;0.90;;
41755;SDS011;27435;48.480;9.258;2023-03-31T16:19:38;1.33;;;0.40;;
41755;SDS011;27435;48.480;9.258;2023-03-31T16:22:12;4.87;;;1.40;;
41755;SDS011;27435;48.480;9.258;2023-03-31T16:24:41;2.40;;;0.83;;
41755;SDS011;27435;48.480;9.258;2023-03-31T16:27:07;3.20;;;0.90;;
41755;SDS011;27435;48.480;9.258;2023-03-31T16:29:34;9.07;;;3.23;;
41755;SDS011;27435;48.480;9.258;2023-03-31T16:34:34;4.57;;;1.00;;
41755;SDS011;27435;48.480;9.258;2023-03-31T16:37:22;2.77;;;1.20;;
41755;SDS011;27435;48.480;9.258;2023-03-31T16:39:48;4.67;;;1.80;;
41755;SDS011;27435;48.480;9.258;2023-03-31T16:42:14;6.93;;;1.07;;
41755;SDS011;27435;48.480;9.258;2023-03-31T16:44:40;2.43;;;0.60;;
41755;SDS011;27435;48.480;9.258;2023-03-31T16:47:05;6.10;;;1.33;;
41755;SDS011;27435;48.480;9.258;2023-03-31T16:49:31;3.83;;;1.00;;
41755;SDS011;27435;48.480;9.258;2023-03-31T16:51:57;2.57;;;1.00;;
41755;SDS011;27435;48.480;9.258;2023-03-31T16:54:23;3.53;;;0.40;;
41755;SDS011;27435;48.480;9.258;2023-03-31T16:56:48;3.23;;;0.63;;
41755;SDS011;27435;48.480;9.258;2023-03-31T16:59:14;2.50;;;0.77;;
41755;SDS011;27435;48.480;9.258;2023-03-31T17:01:40;7.17;;;0.97;;
41755;SDS011;27435;48.480;9.258;2023-03-31T17:04:06;5.77;;;1.20;;
41755;SDS011;27435;48.480;9.258;2023-03-31T17:06:32;4.13;;;1.30;;
41755;SDS011;27435;48.480;9.258;2023-03-31T17:08:57;5.50;;;1.53;;
41755;SDS011;27435;48.480;9.258;2023-03-31T17:11:23;7.83;;;2.00;;
41755;SDS011;27435;48.480;9.258;2023-03-31T17:13:48;2.97;;;0.70;;
41755;SDS011;27435;48.480;9.258;2023-03-31T17:16:15;3.23;;;0.67;;
41755;SDS011;27435;48.480;9.258;2023-03-31T17:18:42;4.33;;;0.47;;
41755;SDS011;27435;48.480;9.258;2023-03-31T17:21:09;5.63;;;0.80;;
41755;SDS011;27435;48.480;9.258;2023-03-31T17:23:36;5.50;;;0.90;;
41755;SDS011;27435;48.480;9.258;2023-03-31T17:26:03;5.63;;;0.90;;
41755;SDS011;27435;48.480;9.258;2023-03-31T17:28:31;5.17;;;0.80;;
41755;SDS011;27435;48.480;9.258;2023-03-31T17:30:57;2.73;;;0.60;;
41755;SDS011;27435;48.480;9.258;2023-03-31T17:33:23;3.87;;;0.67;;
41755;SDS011;27435;48.480;9.258;2023-03-31T17:35:53;4.40;;;1.03;;
41755;SDS011;27435;48.480;9.258;2023-03-31T17:38:20;3.20;;;0.73;;
41755;SDS011;27435;48.480;9.258;2023-03-31T17:40:46;6.67;;;1.03;;
41755;SDS011;27435;48.480;9.258;2023-03-31T17:43:12;6.70;;;0.73;;
41755;SDS011;27435;48.480;9.258;2023-03-31T17:45:38;4.57;;;0.77;;
41755;SDS011;27435;48.480;9.258;2023-03-31T17:48:03;6.73;;;1.57;;
41755;SDS011;27435;48.480;9.258;2023-03-31T17:50:30;4.63;;;1.17;;
41755;SDS011;27435;48.480;9.258;2023-03-31T17:52:57;4.30;;;1.30;;
41755;SDS011;27435;48.480;9.258;2023-03-31T17:55:23;4.90;;;1.03;;
41755;SDS011;27435;48.480;9.258;2023-03-31T17:57:48;5.50;;;0.90;;
41755;SDS011;27435;48.480;9.258;2023-03-31T18:00:14;2.77;;;0.70;;
41755;SDS011;27435;48.480;9.258;2023-03-31T18:02:41;2.80;;;0.77;;
41755;SDS011;27435;48.480;9.258;2023-03-31T18:05:07;2.17;;;0.57;;
41755;SDS011;27435;48.480;9.258;2023-03-31T18:07:35;4.60;;;1.20;;
41755;SDS011;27435;48.480;9.258;2023-03-31T18:10:01;5.90;;;2.43;;
41755;SDS011;27435;48.480;9.258;2023-03-31T18:12:30;8.27;;;2.07;;